createdAt,value
2023-05-06T00:01:06.897Z,13.54
2023-05-06T00:04:03.992Z,13.26
2023-05-06T00:07:00.927Z,12.82
2023-05-06T00:09:57.785Z,12.97
2023-05-06T00:12:54.641Z,12.86
2023-05-06T00:15:51.488Z,12.92
2023-05-06T00:18:48.328Z,12.60
2023-05-06T00:21:45.355Z,12.38
2023-05-06T00:24:42.233Z,12.73
2023-05-06T00:27:39.117Z,12.44
2023-05-06T00:30:35.962Z,12.57
2023-05-06T00:33:32.785Z,12.44
2023-05-06T00:36:30.042Z,12.03
2023-05-06T00:39:26.895Z,12.02
2023-05-06T00:42:23.728Z,11.93
2023-05-06T00:45:20.639Z,11.98
2023-05-06T00:48:18.294Z,12.05
2023-05-06T00:51:15.437Z,12.24
2023-05-06T00:54:13.333Z,12.17
2023-05-06T00:57:10.290Z,12.16
2023-05-06T01:00:08.061Z,11.76
2023-05-06T01:03:04.944Z,12.04
2023-05-06T01:06:18.181Z,11.99
2023-05-06T01:09:21.398Z,11.62
2023-05-06T01:12:27.267Z,11.79
2023-05-06T01:15:36.078Z,11.58
2023-05-06T01:18:33.804Z,11.83
2023-05-06T01:21:35.036Z,11.82
2023-05-06T01:24:41.097Z,11.55
2023-05-06T01:27:37.923Z,11.57
2023-05-06T01:30:48.511Z,11.87
2023-05-06T01:34:09.732Z,11.45
2023-05-06T01:37:46.450Z,11.53
2023-05-06T01:40:49.114Z,11.49
2023-05-06T01:43:48.990Z,11.54
2023-05-06T01:46:46.236Z,11.54
2023-05-06T01:49:43.296Z,11.48
2023-05-06T01:52:40.166Z,11.50
2023-05-06T01:55:37.024Z,11.22
2023-05-06T01:58:33.881Z,11.36
2023-05-06T02:01:30.869Z,11.89
2023-05-06T02:04:27.882Z,11.61
2023-05-06T02:07:24.707Z,11.30
2023-05-06T02:10:21.634Z,11.37
2023-05-06T02:13:19.575Z,11.10
2023-05-06T02:16:16.572Z,11.74
2023-05-06T02:19:13.406Z,11.26
2023-05-06T02:22:10.245Z,10.88
2023-05-06T02:25:08.577Z,11.00
2023-05-06T02:28:05.683Z,11.28
2023-05-06T02:31:02.593Z,11.03
2023-05-06T02:33:59.448Z,10.98
2023-05-06T02:36:57.440Z,10.95
2023-05-06T02:39:54.234Z,10.98
2023-05-06T02:42:51.084Z,11.30
2023-05-06T02:45:47.964Z,11.20
2023-05-06T02:48:44.781Z,11.13
2023-05-06T02:51:41.604Z,11.22
2023-05-06T02:54:38.436Z,11.33
2023-05-06T02:57:35.279Z,11.09
2023-05-06T03:00:32.152Z,11.05
2023-05-06T03:03:28.950Z,11.26
2023-05-06T03:06:26.274Z,11.20
2023-05-06T03:09:23.284Z,11.23
2023-05-06T03:12:20.093Z,11.38
2023-05-06T03:15:17.055Z,11.29
2023-05-06T03:18:13.873Z,11.34
2023-05-06T03:21:12.160Z,11.39
2023-05-06T03:24:09.019Z,11.34
2023-05-06T03:27:06.010Z,11.10
2023-05-06T03:30:03.617Z,11.55
2023-05-06T03:33:01.686Z,11.32
2023-05-06T03:35:58.693Z,11.29
2023-05-06T03:38:55.503Z,11.30
2023-05-06T03:41:52.333Z,11.24
2023-05-06T03:44:49.156Z,11.38
2023-05-06T03:47:46.044Z,11.40
2023-05-06T03:50:42.955Z,11.62
2023-05-06T03:53:39.788Z,11.44
2023-05-06T03:56:36.727Z,11.52
2023-05-06T03:59:33.540Z,11.54
2023-05-06T04:02:30.640Z,11.39
2023-05-06T04:05:27.596Z,11.44
2023-05-06T04:08:24.459Z,11.53
2023-05-06T04:11:21.329Z,11.66
2023-05-06T04:14:18.171Z,11.63
2023-05-06T04:17:15.068Z,11.75
2023-05-06T04:20:12.355Z,11.97
2023-05-06T04:23:09.159Z,11.62
2023-05-06T04:26:06.088Z,11.93
2023-05-06T04:29:02.939Z,11.96
2023-05-06T04:31:59.966Z,11.87
2023-05-06T04:34:57.186Z,11.83
2023-05-06T04:37:53.990Z,11.80
2023-05-06T04:40:50.855Z,11.55
2023-05-06T04:43:47.670Z,11.55
2023-05-06T04:46:44.658Z,11.87
2023-05-06T04:49:42.167Z,11.63
2023-05-06T04:52:38.966Z,11.55
2023-05-06T04:55:35.860Z,11.78
2023-05-06T04:58:32.764Z,11.73
2023-05-06T05:01:29.650Z,11.96
2023-05-06T05:04:27.034Z,11.83
2023-05-06T05:07:24.038Z,12.13
2023-05-06T05:10:20.932Z,11.69
2023-05-06T05:13:17.811Z,12.09
2023-05-06T05:16:14.797Z,12.05
2023-05-06T05:19:11.676Z,12.10
2023-05-06T05:22:08.501Z,12.50
2023-05-06T05:25:07.845Z,12.19
2023-05-06T05:28:05.316Z,12.07
2023-05-06T05:31:04.227Z,11.99
2023-05-06T05:34:01.489Z,12.07
2023-05-06T05:36:58.455Z,12.31
2023-05-06T05:39:55.912Z,12.22
2023-05-06T05:42:52.769Z,12.55
2023-05-06T05:45:49.619Z,12.52
2023-05-06T05:48:46.455Z,12.39
2023-05-06T05:51:43.269Z,11.98
2023-05-06T05:54:40.123Z,12.37
2023-05-06T05:57:37.004Z,12.58
2023-05-06T06:00:33.925Z,12.41
2023-05-06T06:03:30.960Z,12.57
2023-05-06T06:06:27.983Z,12.80
2023-05-06T06:09:24.992Z,12.92
2023-05-06T06:12:22.911Z,12.89
2023-05-06T06:15:19.869Z,12.70
2023-05-06T06:18:16.792Z,12.96
2023-05-06T06:21:14.125Z,13.22
2023-05-06T06:24:11.053Z,13.36
2023-05-06T06:27:07.913Z,13.05
2023-05-06T06:30:05.536Z,13.33
2023-05-06T06:33:02.439Z,13.40
2023-05-06T06:35:59.608Z,13.24
2023-05-06T06:38:56.439Z,13.56
2023-05-06T06:41:58.200Z,13.96
2023-05-06T06:44:55.023Z,14.06
2023-05-06T06:47:52.255Z,14.43
2023-05-06T06:50:49.229Z,14.41
2023-05-06T06:53:48.314Z,14.86
2023-05-06T06:56:45.147Z,15.43
2023-05-06T06:59:42.007Z,15.54
2023-05-06T07:02:38.920Z,15.26
2023-05-06T07:05:35.786Z,15.08
2023-05-06T07:08:32.693Z,15.27
2023-05-06T07:11:29.506Z,15.38
2023-05-06T07:14:26.380Z,15.26
2023-05-06T07:17:23.495Z,15.28
2023-05-06T07:20:20.455Z,15.36
2023-05-06T07:23:17.413Z,15.52
2023-05-06T07:26:14.390Z,15.41
2023-05-06T07:29:11.341Z,15.40
2023-05-06T07:32:09.236Z,15.25
2023-05-06T07:35:06.354Z,15.80
2023-05-06T07:38:03.287Z,15.53
2023-05-06T07:41:00.198Z,15.81
2023-05-06T07:43:57.014Z,15.61
2023-05-06T07:46:54.322Z,16.01
2023-05-06T07:49:51.268Z,15.87
2023-05-06T07:52:48.106Z,15.59
2023-05-06T07:55:44.909Z,16.22
2023-05-06T07:58:41.736Z,16.48
2023-05-06T08:01:38.594Z,16.63
2023-05-06T08:04:36.019Z,16.38
2023-05-06T08:07:32.905Z,17.01
2023-05-06T08:10:29.731Z,16.88
2023-05-06T08:13:28.156Z,17.61
2023-05-06T08:16:25.718Z,18.93
2023-05-06T08:19:23.244Z,18.03
2023-05-06T08:22:20.166Z,18.06
2023-05-06T08:25:17.052Z,18.50
2023-05-06T08:28:13.952Z,18.19
2023-05-06T08:31:10.826Z,18.43
2023-05-06T08:34:07.822Z,18.62
2023-05-06T08:37:04.769Z,18.75
2023-05-06T08:40:01.800Z,18.97
2023-05-06T08:43:00.119Z,19.90
2023-05-06T08:45:57.318Z,19.52
2023-05-06T08:48:54.171Z,19.43
2023-05-06T08:51:52.576Z,18.73
2023-05-06T08:54:54.573Z,18.61
2023-05-06T08:57:53.557Z,20.29
2023-05-06T09:00:51.415Z,21.47
2023-05-06T09:03:48.761Z,20.94
2023-05-06T09:06:46.173Z,20.27
2023-05-06T09:09:43.000Z,21.15
2023-05-06T09:12:39.971Z,19.86
2023-05-06T09:15:48.262Z,20.63
2023-05-06T09:18:45.092Z,21.53
2023-05-06T09:21:48.047Z,21.28
2023-05-06T09:24:45.114Z,21.14
2023-05-06T09:27:42.121Z,20.68
2023-05-06T09:30:41.614Z,21.60
2023-05-06T09:33:38.569Z,21.50
2023-05-06T09:36:35.975Z,22.44
2023-05-06T09:39:32.783Z,21.03
2023-05-06T09:42:30.798Z,21.62
2023-05-06T09:45:29.826Z,21.98
2023-05-06T09:48:30.169Z,22.23
2023-05-06T09:51:28.518Z,23.08
2023-05-06T09:54:26.710Z,21.75
2023-05-06T09:57:24.395Z,22.19
2023-05-06T10:00:28.003Z,25.66
2023-05-06T10:03:26.390Z,22.66
2023-05-06T10:06:24.375Z,22.51
2023-05-06T10:09:27.026Z,21.90
2023-05-06T10:12:25.315Z,23.11
2023-05-06T10:15:23.870Z,23.20
2023-05-06T10:18:22.349Z,23.41
2023-05-06T10:21:24.825Z,22.56
2023-05-06T10:24:32.498Z,23.59
2023-05-06T10:27:32.987Z,22.81
2023-05-06T10:30:30.144Z,23.43
2023-05-06T10:33:28.491Z,24.15
2023-05-06T10:36:31.820Z,24.42
2023-05-06T10:39:29.026Z,25.97
2023-05-06T10:42:34.187Z,25.85
2023-05-06T10:46:10.109Z,23.28
2023-05-06T10:49:08.558Z,25.28
2023-05-06T10:52:16.941Z,24.40
2023-05-06T10:55:36.283Z,24.56
2023-05-06T10:58:36.474Z,24.10
2023-05-06T11:01:34.126Z,24.73
2023-05-06T11:04:31.608Z,23.40
2023-05-06T11:07:28.597Z,23.89
2023-05-06T11:10:34.094Z,24.68
2023-05-06T11:13:35.390Z,24.17
2023-05-06T11:16:48.510Z,26.41
2023-05-06T11:19:45.398Z,26.01
2023-05-06T11:22:42.294Z,24.54
2023-05-06T11:25:43.254Z,25.98
2023-05-06T11:28:43.569Z,26.30
2023-05-06T11:31:42.519Z,26.01
2023-05-06T11:34:39.812Z,26.43
2023-05-06T11:37:36.615Z,24.18
2023-05-06T11:40:33.573Z,25.71
2023-05-06T11:43:30.375Z,25.84
2023-05-06T11:46:33.321Z,27.28
2023-05-06T11:49:30.510Z,27.24
2023-05-06T11:52:27.361Z,25.69
2023-05-06T11:55:24.230Z,22.83
2023-05-06T11:58:30.170Z,22.92
2023-05-06T12:01:27.007Z,23.04
2023-05-06T12:04:23.970Z,23.29
2023-05-06T12:07:20.823Z,21.90
2023-05-06T12:10:18.569Z,23.21
2023-05-06T12:13:16.224Z,22.46
2023-05-06T12:16:15.342Z,24.03
2023-05-06T12:19:12.395Z,22.22
2023-05-06T12:22:22.311Z,22.34
2023-05-06T12:25:19.559Z,22.27
2023-05-06T12:28:18.259Z,22.09
2023-05-06T12:31:23.297Z,25.55
2023-05-06T12:34:40.127Z,23.14
2023-05-06T12:37:36.967Z,21.90
2023-05-06T12:40:33.931Z,21.46
2023-05-06T12:43:31.457Z,21.43
2023-05-06T12:46:28.439Z,20.98
2023-05-06T12:49:25.787Z,21.12
2023-05-06T12:52:28.701Z,22.75
2023-05-06T12:55:28.422Z,22.03
2023-05-06T12:58:25.242Z,22.05
2023-05-06T13:01:22.135Z,21.80
2023-05-06T13:04:19.013Z,21.54
2023-05-06T13:07:15.849Z,21.81
2023-05-06T13:10:12.880Z,21.46
2023-05-06T13:13:10.053Z,21.13
2023-05-06T13:16:08.669Z,21.36
2023-05-06T13:19:05.508Z,20.56
2023-05-06T13:22:02.766Z,20.82
2023-05-06T13:24:59.573Z,20.55
2023-05-06T13:27:56.360Z,22.81
2023-05-06T13:30:53.393Z,24.12
2023-05-06T13:33:50.612Z,24.63
2023-05-06T13:36:49.576Z,23.74
2023-05-06T13:39:46.696Z,22.11
2023-05-06T13:42:43.502Z,22.64
2023-05-06T13:45:40.343Z,22.83
2023-05-06T13:48:37.225Z,21.80
2023-05-06T13:51:34.664Z,24.63
2023-05-06T13:54:31.489Z,23.89
2023-05-06T13:57:28.606Z,23.42
2023-05-06T14:00:25.684Z,25.04
2023-05-06T14:03:22.485Z,22.56
2023-05-06T14:06:19.468Z,22.12
2023-05-06T14:09:16.280Z,21.52
2023-05-06T14:12:13.090Z,22.03
2023-05-06T14:15:11.351Z,21.66
2023-05-06T14:18:08.488Z,21.97
2023-05-06T14:21:05.510Z,22.41
2023-05-06T14:24:02.313Z,22.18
2023-05-06T14:26:59.278Z,22.08
2023-05-06T14:29:56.145Z,21.26
2023-05-06T14:32:53.088Z,21.19
2023-05-06T14:35:52.472Z,20.97
2023-05-06T14:38:49.301Z,20.53
2023-05-06T14:41:46.596Z,20.62
2023-05-06T14:44:45.087Z,21.62
2023-05-06T14:47:42.976Z,20.33
2023-05-06T14:50:39.944Z,20.83
2023-05-06T14:53:36.815Z,20.64
2023-05-06T14:56:33.641Z,20.57
2023-05-06T14:59:30.648Z,20.21
2023-05-06T15:02:27.627Z,20.29
2023-05-06T15:05:24.473Z,20.15
2023-05-06T15:08:21.405Z,20.05
2023-05-06T15:11:18.244Z,20.00
2023-05-06T15:14:15.043Z,19.92
2023-05-06T15:17:13.429Z,19.93
2023-05-06T15:20:11.135Z,19.93
2023-05-06T15:23:08.009Z,19.82
2023-05-06T15:26:04.927Z,19.92
2023-05-06T15:29:01.804Z,19.75
2023-05-06T15:31:58.781Z,19.95
2023-05-06T15:34:55.700Z,19.92
2023-05-06T15:37:58.811Z,20.44
2023-05-06T15:40:55.672Z,19.83
2023-05-06T15:43:58.276Z,19.53
2023-05-06T15:46:55.355Z,19.88
2023-05-06T15:49:55.051Z,20.46
2023-05-06T15:52:52.171Z,21.08
2023-05-06T15:55:56.649Z,20.39
2023-05-06T15:58:55.604Z,20.17
2023-05-06T16:02:25.312Z,20.53
2023-05-06T16:05:09.776Z,19.32
2023-05-06T16:08:06.730Z,20.34
2023-05-06T16:11:05.308Z,20.33
2023-05-06T16:14:02.147Z,19.80
2023-05-06T16:16:58.997Z,19.80
2023-05-06T16:19:55.830Z,19.51
2023-05-06T16:22:52.828Z,19.64
2023-05-06T16:25:49.838Z,19.55
2023-05-06T16:28:46.638Z,19.35
2023-05-06T16:31:43.483Z,19.49
2023-05-06T16:34:40.961Z,19.76
2023-05-06T16:37:37.863Z,19.45
2023-05-06T16:40:42.648Z,19.20
2023-05-06T16:43:39.515Z,19.21
2023-05-06T16:46:36.368Z,18.95
2023-05-06T16:49:33.786Z,19.57
2023-05-06T16:52:30.940Z,18.82
2023-05-06T16:55:27.789Z,19.16
2023-05-06T16:58:24.832Z,19.47
2023-05-06T17:01:21.752Z,20.59
2023-05-06T17:04:18.698Z,19.57
2023-05-06T17:07:15.544Z,19.59
2023-05-06T17:10:12.627Z,19.06
2023-05-06T17:13:09.843Z,18.72
2023-05-06T17:16:07.181Z,19.03
2023-05-06T17:19:03.998Z,18.74
2023-05-06T17:22:00.810Z,18.72
2023-05-06T17:24:57.637Z,18.57
2023-05-06T17:27:54.534Z,18.70
2023-05-06T17:30:51.464Z,18.31
2023-05-06T17:33:48.310Z,18.56
2023-05-06T17:36:45.262Z,18.29
2023-05-06T17:39:42.079Z,18.14
2023-05-06T17:42:39.204Z,18.01
2023-05-06T17:45:36.082Z,18.27
2023-05-06T17:48:33.074Z,17.96
2023-05-06T17:51:29.908Z,17.94
2023-05-06T17:54:26.741Z,17.65
2023-05-06T17:57:23.791Z,18.00
2023-05-06T18:00:21.615Z,17.95
2023-05-06T18:03:18.549Z,17.83
2023-05-06T18:06:15.612Z,17.57
2023-05-06T18:09:12.450Z,17.64
2023-05-06T18:12:09.308Z,17.66
2023-05-06T18:15:07.137Z,17.34
2023-05-06T18:18:04.232Z,17.32
2023-05-06T18:21:01.137Z,17.27
2023-05-06T18:24:05.932Z,17.21
2023-05-06T18:27:13.033Z,16.91
2023-05-06T18:30:10.266Z,16.60
2023-05-06T18:33:07.160Z,16.58
2023-05-06T18:36:04.188Z,16.40
2023-05-06T18:39:01.268Z,16.13
2023-05-06T18:41:58.099Z,16.05
2023-05-06T18:44:56.414Z,15.89
2023-05-06T18:47:53.356Z,15.85
2023-05-06T18:50:50.981Z,15.50
2023-05-06T18:53:47.832Z,15.29
2023-05-06T18:56:44.675Z,15.23
2023-05-06T18:59:41.764Z,15.05
2023-05-06T19:02:38.709Z,14.83
2023-05-06T19:05:37.890Z,14.78
2023-05-06T19:08:35.268Z,14.65
2023-05-06T19:11:32.124Z,14.45
2023-05-06T19:14:29.174Z,14.73
2023-05-06T19:17:26.102Z,14.45
2023-05-06T19:20:22.978Z,14.54
2023-05-06T19:23:20.120Z,14.46
2023-05-06T19:26:17.025Z,14.42
2023-05-06T19:29:14.763Z,14.29
2023-05-06T19:32:11.601Z,14.21
2023-05-06T19:35:09.122Z,14.10
2023-05-06T19:38:09.338Z,14.15
2023-05-06T19:41:07.155Z,14.44
2023-05-06T19:44:04.075Z,14.29
2023-05-06T19:47:00.907Z,14.21
2023-05-06T19:49:57.729Z,14.16
2023-05-06T19:52:54.566Z,14.26
2023-05-06T19:55:53.762Z,14.57
2023-05-06T19:58:53.220Z,14.32
2023-05-06T20:01:50.129Z,14.51
2023-05-06T20:04:46.975Z,14.71
2023-05-06T20:07:43.801Z,14.61
2023-05-06T20:10:40.685Z,14.52
2023-05-06T20:13:37.501Z,14.75
2023-05-06T20:16:34.377Z,14.52
2023-05-06T20:19:31.271Z,14.59
2023-05-06T20:22:28.230Z,14.75
2023-05-06T20:25:25.614Z,14.65
2023-05-06T20:28:22.458Z,14.68
2023-05-06T20:31:19.406Z,14.64
2023-05-06T20:34:16.221Z,14.67
2023-05-06T20:37:13.078Z,14.78
2023-05-06T20:40:10.782Z,14.80
2023-05-06T20:43:07.644Z,14.69
2023-05-06T20:46:05.642Z,14.86
2023-05-06T20:49:02.569Z,14.80
2023-05-06T20:52:01.195Z,14.71
2023-05-06T20:54:58.167Z,14.74
2023-05-06T20:57:55.164Z,14.85
2023-05-06T21:00:52.383Z,14.76
2023-05-06T21:03:50.394Z,14.91
2023-05-06T21:06:47.418Z,14.52
2023-05-06T21:09:44.284Z,14.53
2023-05-06T21:12:47.909Z,14.50
2023-05-06T21:15:44.781Z,14.52
2023-05-06T21:18:41.643Z,14.42
2023-05-06T21:21:38.497Z,14.30
2023-05-06T21:24:35.598Z,14.45
2023-05-06T21:27:32.429Z,14.42
2023-05-06T21:30:29.357Z,14.15
2023-05-06T21:33:26.176Z,14.24
2023-05-06T21:36:23.497Z,14.39
2023-05-06T21:39:20.894Z,14.22
2023-05-06T21:42:17.720Z,14.18
2023-05-06T21:45:16.209Z,14.22
2023-05-06T21:48:13.013Z,14.24
2023-05-06T21:51:09.850Z,14.10
2023-05-06T21:54:07.107Z,14.17
2023-05-06T21:57:07.923Z,14.29
2023-05-06T22:00:11.957Z,14.14
2023-05-06T22:03:09.291Z,13.95
2023-05-06T22:06:06.645Z,13.99
2023-05-06T22:09:08.606Z,14.21
2023-05-06T22:12:08.511Z,14.14
2023-05-06T22:15:07.034Z,14.14
2023-05-06T22:18:04.187Z,13.84
2023-05-06T22:21:01.286Z,14.13
2023-05-06T22:23:58.281Z,14.23
2023-05-06T22:26:55.173Z,14.17
2023-05-06T22:29:52.012Z,14.15
2023-05-06T22:32:48.960Z,14.05
2023-05-06T22:35:45.916Z,13.98
2023-05-06T22:38:42.988Z,14.12
2023-05-06T22:41:39.836Z,14.05
2023-05-06T22:44:36.891Z,13.88
2023-05-06T22:47:33.781Z,14.21
2023-05-06T22:50:30.865Z,14.09
2023-05-06T22:53:27.699Z,14.18
2023-05-06T22:56:24.982Z,14.03
2023-05-06T22:59:22.091Z,13.99
2023-05-06T23:02:19.002Z,14.06
2023-05-06T23:05:15.931Z,14.17
2023-05-06T23:08:12.815Z,14.03
2023-05-06T23:11:09.727Z,14.07
2023-05-06T23:14:06.751Z,14.03
2023-05-06T23:17:03.835Z,14.04
2023-05-06T23:20:00.926Z,13.88
2023-05-06T23:22:57.792Z,13.74
2023-05-06T23:25:54.773Z,14.00
2023-05-06T23:28:51.682Z,14.12
2023-05-06T23:31:48.519Z,13.90
2023-05-06T23:34:45.434Z,14.09
2023-05-06T23:37:42.266Z,13.83
2023-05-06T23:40:39.127Z,13.87
2023-05-06T23:43:36.078Z,13.93
2023-05-06T23:46:33.199Z,13.90
2023-05-06T23:49:31.369Z,13.84
2023-05-06T23:52:28.237Z,14.08
2023-05-06T23:55:26.394Z,13.84
2023-05-06T23:58:23.288Z,13.68
